Time;durP1;ratioP1;P1;durP2;ratioP2;P2;SDS_P1;SDS_P2;PMS_P1;PMS_P2;Temp;Humidity;BMP_temperature;BMP_pressure;BME280_temperature;BME280_humidity;BME280_pressure;Samples;Min_cycle;Max_cycle;Signal;HPM_P1;HPM_P2
2021/07/17 00:01:35;;;;;;;44.77;8.93;;;19.80;99.90;;;;;;1938506;74;21131;-71
2021/07/17 00:04:03;;;;;;;39.05;8.50;;;19.70;99.90;;;;;;1938009;74;21072;-72
2021/07/17 00:06:31;;;;;;;42.23;9.33;;;19.70;99.90;;;;;;1938585;74;21172;-72
2021/07/17 00:08:58;;;;;;;45.50;9.18;;;19.80;99.90;;;;;;1928547;72;21106;-71
2021/07/17 00:11:26;;;;;;;45.25;9.63;;;19.70;99.90;;;;;;1926109;74;21126;-72
2021/07/17 00:13:54;;;;;;;32.83;8.75;;;19.60;99.90;;;;;;1911060;73;21110;-72
2021/07/17 00:16:26;;;;;;;38.60;8.43;;;19.60;99.90;;;;;;1902606;75;21081;-71
2021/07/17 00:18:51;;;;;;;45.38;9.65;;;19.60;99.90;;;;;;1919149;74;21054;-72
2021/07/17 00:21:18;;;;;;;39.67;9.58;;;19.60;99.90;;;;;;1931873;73;21102;-72
2021/07/17 00:23:46;;;;;;;39.63;9.00;;;19.60;99.90;;;;;;1926360;74;21105;-72
2021/07/17 00:26:14;;;;;;;43.58;9.58;;;19.50;99.90;;;;;;1903007;74;21074;-71
2021/07/17 00:28:41;;;;;;;42.20;9.45;;;19.60;99.90;;;;;;1921725;74;21066;-72
2021/07/17 00:31:09;;;;;;;48.48;9.60;;;19.60;99.90;;;;;;1921205;74;21098;-71
2021/07/17 00:33:36;;;;;;;41.25;8.70;;;19.60;99.90;;;;;;1921237;73;21059;-70
2021/07/17 00:36:05;;;;;;;46.88;9.93;;;19.60;99.90;;;;;;1909516;74;21212;-71
2021/07/17 00:38:33;;;;;;;42.65;9.43;;;19.50;99.90;;;;;;1920338;74;21144;-71
2021/07/17 00:41:01;;;;;;;36.50;9.03;;;19.50;99.90;;;;;;1925811;74;21118;-72
2021/07/17 00:43:28;;;;;;;39.92;8.80;;;19.50;99.90;;;;;;1913794;74;21600;-71
2021/07/17 00:45:56;;;;;;;38.45;9.05;;;19.50;99.90;;;;;;1933239;74;22212;-70
2021/07/17 00:48:23;;;;;;;45.43;10.15;;;19.50;99.90;;;;;;1927343;74;21629;-71
2021/07/17 00:50:51;;;;;;;35.90;8.78;;;19.50;99.90;;;;;;1918054;74;21627;-70
2021/07/17 00:53:19;;;;;;;36.42;8.63;;;19.60;99.90;;;;;;1937589;74;21661;-71
2021/07/17 00:55:49;;;;;;;36.45;8.95;;;19.60;99.90;;;;;;1916608;74;21051;-71
2021/07/17 00:58:23;;;;;;;42.83;9.90;;;19.60;99.90;;;;;;1913651;72;21493;-72
2021/07/17 01:00:52;;;;;;;42.38;8.38;;;19.60;99.90;;;;;;1917980;74;21191;-71
2021/07/17 01:03:20;;;;;;;37.73;8.40;;;19.50;99.90;;;;;;1926971;74;21501;-70
2021/07/17 01:05:49;;;;;;;41.25;8.70;;;19.50;99.90;;;;;;1907327;74;21344;-71
2021/07/17 01:08:19;;;;;;;37.15;9.35;;;19.50;99.90;;;;;;1910098;74;21090;-71
2021/07/17 01:10:47;;;;;;;40.63;8.63;;;19.50;99.90;;;;;;1934234;74;21660;-72
2021/07/17 01:13:15;;;;;;;42.15;8.90;;;19.40;99.90;;;;;;1923224;74;21079;-71
2021/07/17 01:15:42;;;;;;;38.95;8.70;;;19.40;99.90;;;;;;1921115;74;21063;-72
2021/07/17 01:18:10;;;;;;;42.93;8.95;;;19.30;99.90;;;;;;1929930;74;22051;-72
2021/07/17 01:20:39;;;;;;;45.08;8.93;;;19.30;99.90;;;;;;1908920;74;21180;-72
2021/07/17 01:23:08;;;;;;;39.35;8.63;;;19.30;99.90;;;;;;1915825;74;21566;-73
2021/07/17 01:25:36;;;;;;;49.55;9.73;;;19.30;99.90;;;;;;1919189;72;21118;-73
2021/07/17 01:28:04;;;;;;;40.75;8.83;;;19.40;99.90;;;;;;1909665;74;21078;-73
2021/07/17 01:30:34;;;;;;;34.03;8.45;;;19.40;99.90;;;;;;1932894;74;21129;-73
2021/07/17 01:33:03;;;;;;;31.57;8.25;;;19.30;99.90;;;;;;1938102;74;21012;-72
2021/07/17 01:35:30;;;;;;;39.03;8.85;;;19.30;99.90;;;;;;1938050;72;21582;-73
2021/07/17 01:37:58;;;;;;;43.68;10.40;;;19.30;99.90;;;;;;1939103;74;21481;-73
2021/07/17 01:40:26;;;;;;;50.05;10.10;;;19.30;99.90;;;;;;1917069;74;21118;-73
2021/07/17 01:42:55;;;;;;;38.85;8.80;;;19.20;99.90;;;;;;1935494;74;21095;-73
2021/07/17 01:45:28;;;;;;;39.40;8.45;;;19.30;99.90;;;;;;1919713;74;21132;-73
2021/07/17 01:47:56;;;;;;;38.70;9.65;;;19.40;99.90;;;;;;1917561;74;21170;-73
2021/07/17 01:50:26;;;;;;;36.10;7.65;;;19.40;99.90;;;;;;1911345;74;21173;-73
2021/07/17 01:52:53;;;;;;;40.67;8.43;;;19.40;99.90;;;;;;1917107;74;21078;-73
2021/07/17 01:55:21;;;;;;;40.17;8.33;;;19.50;99.90;;;;;;1937885;74;21093;-72
2021/07/17 01:57:51;;;;;;;30.15;8.20;;;19.40;99.90;;;;;;1938749;74;21156;-71
2021/07/17 02:00:20;;;;;;;29.27;7.00;;;19.30;99.90;;;;;;1903282;74;21066;-71
2021/07/17 02:02:49;;;;;;;36.83;7.92;;;19.30;99.90;;;;;;1942062;74;21520;-70
2021/07/17 02:05:17;;;;;;;32.90;7.97;;;19.30;99.90;;;;;;1920579;74;21026;-71
2021/07/17 02:07:48;;;;;;;34.03;7.25;;;19.40;99.90;;;;;;1909270;75;21019;-70
2021/07/17 02:10:27;;;;;;;37.08;7.87;;;19.40;99.90;;;;;;1910984;74;21100;-72
2021/07/17 02:13:01;;;;;;;34.75;7.08;;;19.30;99.90;;;;;;1903783;74;21022;-71
2021/07/17 02:15:30;;;;;;;33.15;7.47;;;19.30;99.90;;;;;;1917472;74;21011;-71
2021/07/17 02:17:58;;;;;;;29.72;7.05;;;19.40;99.90;;;;;;1931790;74;21019;-72
2021/07/17 02:20:26;;;;;;;26.97;6.72;;;19.30;99.90;;;;;;1939441;74;21096;-71
2021/07/17 02:22:53;;;;;;;26.70;7.42;;;19.30;99.90;;;;;;1936079;74;21082;-71
2021/07/17 02:25:21;;;;;;;29.92;7.00;;;19.20;99.90;;;;;;1939212;74;21155;-72
2021/07/17 02:27:49;;;;;;;33.75;7.67;;;19.20;99.90;;;;;;1910035;74;21105;-72
2021/07/17 02:30:18;;;;;;;34.43;7.33;;;19.30;99.90;;;;;;1918763;74;21168;-73
2021/07/17 02:32:46;;;;;;;35.83;8.33;;;19.30;99.90;;;;;;1938243;74;21082;-71
2021/07/17 02:35:13;;;;;;;36.75;7.83;;;19.30;99.90;;;;;;1924290;73;21151;-72
2021/07/17 02:37:41;;;;;;;34.92;7.58;;;19.30;99.90;;;;;;1903635;74;21059;-70
2021/07/17 02:40:09;;;;;;;32.48;7.10;;;19.30;99.90;;;;;;1934906;73;21114;-72
2021/07/17 02:42:37;;;;;;;26.73;6.58;;;19.20;99.90;;;;;;1933244;74;21027;-71
2021/07/17 02:45:07;;;;;;;29.30;6.83;;;19.30;99.90;;;;;;1938977;74;21080;-72
2021/07/17 02:47:35;;;;;;;27.98;7.47;;;19.30;99.90;;;;;;1939313;74;21149;-71
2021/07/17 02:50:04;;;;;;;24.90;6.78;;;19.30;99.90;;;;;;1938350;74;21056;-71
2021/07/17 02:52:31;;;;;;;28.87;6.80;;;19.20;99.90;;;;;;1939551;74;21171;-71
2021/07/17 02:54:59;;;;;;;29.70;6.62;;;19.20;99.90;;;;;;1938435;73;21570;-71
2021/07/17 02:57:27;;;;;;;30.32;7.37;;;19.20;99.90;;;;;;1928668;74;21003;-71
2021/07/17 02:59:55;;;;;;;21.85;5.95;;;19.10;99.90;;;;;;1928587;74;21149;-71
2021/07/17 03:02:23;;;;;;;28.65;6.67;;;19.10;99.90;;;;;;1932153;74;21110;-72
2021/07/17 03:04:51;;;;;;;32.40;6.70;;;19.10;99.90;;;;;;1938614;74;21077;-72
2021/07/17 03:07:18;;;;;;;24.23;6.15;;;19.10;99.90;;;;;;1938586;74;21588;-73
2021/07/17 03:09:46;;;;;;;30.10;6.25;;;19.00;99.90;;;;;;1919356;74;21082;-73
2021/07/17 03:12:13;;;;;;;28.52;6.22;;;19.00;99.90;;;;;;1925423;74;21191;-72
2021/07/17 03:14:41;;;;;;;27.80;6.50;;;19.00;99.90;;;;;;1936281;74;21537;-73
2021/07/17 03:17:09;;;;;;;23.55;5.78;;;18.90;99.90;;;;;;1939278;74;21071;-72
2021/07/17 03:19:36;;;;;;;21.02;5.55;;;18.90;99.90;;;;;;1923625;72;21167;-72
2021/07/17 03:22:04;;;;;;;22.17;5.42;;;18.90;99.90;;;;;;1922586;74;21082;-73
2021/07/17 03:24:32;;;;;;;24.37;6.05;;;19.00;99.90;;;;;;1925824;73;21111;-73
2021/07/17 03:27:00;;;;;;;18.75;5.58;;;19.00;99.90;;;;;;1928091;74;21422;-73
2021/07/17 03:29:27;;;;;;;20.60;5.60;;;19.00;99.90;;;;;;1938802;74;21098;-74
2021/07/17 03:31:55;;;;;;;25.35;5.85;;;19.00;99.90;;;;;;1907181;74;21109;-73
2021/07/17 03:34:22;;;;;;;21.65;5.37;;;19.10;99.90;;;;;;1902353;73;21556;-73
2021/07/17 03:36:50;;;;;;;16.37;3.70;;;19.10;99.90;;;;;;1916387;74;21109;-73
2021/07/17 03:39:17;;;;;;;13.88;4.60;;;19.10;99.90;;;;;;1934590;74;21186;-73
2021/07/17 03:41:45;;;;;;;17.80;4.17;;;19.10;99.90;;;;;;1911211;74;21121;-70
2021/07/17 03:44:13;;;;;;;13.48;4.12;;;19.10;99.90;;;;;;1908140;74;21605;-71
2021/07/17 03:46:41;;;;;;;16.45;3.67;;;19.10;99.90;;;;;;1911912;73;21655;-73
2021/07/17 03:49:08;;;;;;;12.35;3.58;;;19.10;99.90;;;;;;1938873;74;21107;-73
2021/07/17 03:51:36;;;;;;;13.95;4.17;;;19.10;99.90;;;;;;1938480;74;21131;-74
2021/07/17 03:54:03;;;;;;;14.03;3.45;;;19.00;99.90;;;;;;1927946;74;21157;-73
2021/07/17 03:56:31;;;;;;;14.70;3.67;;;19.00;99.90;;;;;;1912159;74;21188;-74
2021/07/17 03:58:58;;;;;;;10.63;3.25;;;18.90;99.90;;;;;;1938234;74;21082;-73
2021/07/17 04:01:26;;;;;;;7.80;2.80;;;18.90;99.90;;;;;;1937549;74;21106;-73
2021/07/17 04:03:53;;;;;;;10.30;3.00;;;18.90;99.90;;;;;;1905876;74;21536;-72
2021/07/17 04:06:21;;;;;;;9.68;3.33;;;18.90;99.90;;;;;;1906701;74;21093;-72
2021/07/17 04:08:48;;;;;;;10.15;3.02;;;18.80;99.90;;;;;;1932147;74;21090;-72
2021/07/17 04:11:15;;;;;;;10.48;2.77;;;18.80;99.90;;;;;;1938914;74;21562;-73
2021/07/17 04:13:43;;;;;;;6.30;2.50;;;18.80;99.90;;;;;;1910177;74;21082;-73
2021/07/17 04:16:10;;;;;;;11.73;3.10;;;18.80;99.90;;;;;;1927608;74;21079;-72
2021/07/17 04:18:38;;;;;;;9.88;2.45;;;18.80;99.90;;;;;;1937019;74;21066;-73
2021/07/17 04:21:05;;;;;;;8.15;2.20;;;18.70;99.90;;;;;;1936066;73;21096;-76
2021/07/17 04:23:33;;;;;;;8.08;2.67;;;18.70;99.90;;;;;;1936905;74;21169;-75
2021/07/17 04:26:00;;;;;;;10.98;2.65;;;18.70;99.90;;;;;;1932678;73;21084;-75
2021/07/17 04:28:28;;;;;;;11.40;2.08;;;18.80;99.90;;;;;;1931807;74;21617;-77
2021/07/17 04:30:55;;;;;;;8.10;2.30;;;18.80;99.90;;;;;;1924722;73;21200;-76
2021/07/17 04:33:23;;;;;;;9.15;2.35;;;18.80;99.90;;;;;;1898725;75;21102;-76
2021/07/17 04:35:51;;;;;;;11.97;2.77;;;18.80;99.90;;;;;;1896664;75;21115;-74
2021/07/17 04:38:18;;;;;;;11.55;2.50;;;18.80;99.90;;;;;;1896951;75;21116;-76
2021/07/17 04:40:46;;;;;;;7.40;2.52;;;18.80;99.90;;;;;;1885361;74;21089;-74
2021/07/17 04:43:13;;;;;;;8.58;2.10;;;18.80;99.90;;;;;;1897023;75;21134;-76
2021/07/17 04:45:41;;;;;;;8.88;2.50;;;18.80;99.90;;;;;;1887009;74;21094;-74
2021/07/17 04:48:09;;;;;;;12.78;2.22;;;18.80;99.90;;;;;;1885413;75;21072;-75
2021/07/17 04:50:37;;;;;;;9.65;1.98;;;18.90;99.90;;;;;;1896416;74;21097;-76
2021/07/17 04:53:06;;;;;;;7.15;2.50;;;18.90;99.90;;;;;;1882342;75;21070;-76
2021/07/17 04:55:33;;;;;;;9.93;2.17;;;18.90;99.90;;;;;;1897473;74;21172;-75
2021/07/17 04:58:01;;;;;;;10.82;2.22;;;18.90;99.90;;;;;;1898294;75;21083;-76
2021/07/17 05:00:29;;;;;;;6.50;2.02;;;18.90;99.90;;;;;;1889857;74;21074;-76
2021/07/17 05:02:57;;;;;;;8.53;2.00;;;18.90;99.90;;;;;;1892202;75;21110;-75
2021/07/17 05:05:26;;;;;;;14.50;2.62;;;18.90;99.90;;;;;;1886173;74;21117;-76
2021/07/17 05:07:54;;;;;;;10.28;2.20;;;18.90;99.90;;;;;;1886775;75;21093;-76
2021/07/17 05:10:24;;;;;;;8.33;2.52;;;19.00;99.90;;;;;;1897970;74;21587;-75
2021/07/17 05:12:52;;;;;;;12.82;2.37;;;19.00;99.90;;;;;;1898392;74;21129;-74
2021/07/17 05:15:21;;;;;;;13.60;2.83;;;19.10;99.90;;;;;;1894477;74;21120;-75
2021/07/17 05:17:48;;;;;;;10.25;2.35;;;19.10;99.90;;;;;;1897318;75;21615;-73
2021/07/17 05:20:16;;;;;;;9.58;1.95;;;19.20;99.90;;;;;;1898156;74;21067;-74
2021/07/17 05:22:45;;;;;;;10.85;2.33;;;19.20;99.90;;;;;;1898074;75;21066;-75
2021/07/17 05:25:13;;;;;;;6.37;1.90;;;19.30;99.90;;;;;;1889930;74;21483;-74
2021/07/17 05:27:40;;;;;;;9.38;2.30;;;19.30;99.90;;;;;;1885633;76;21506;-75
2021/07/17 05:30:08;;;;;;;7.47;2.35;;;19.30;99.90;;;;;;1897885;74;21103;-76
2021/07/17 05:32:36;;;;;;;10.28;2.45;;;19.40;99.90;;;;;;1898044;74;21131;-76
2021/07/17 05:35:04;;;;;;;11.73;2.50;;;19.40;99.90;;;;;;1897759;74;21185;-74
2021/07/17 05:37:31;;;;;;;11.05;2.22;;;19.40;99.90;;;;;;1895821;75;21086;-74
2021/07/17 05:39:59;;;;;;;11.25;2.40;;;19.40;99.90;;;;;;1886393;74;21019;-75
2021/07/17 05:42:26;;;;;;;11.53;3.00;;;19.40;99.90;;;;;;1894575;75;21669;-75
2021/07/17 05:44:54;;;;;;;10.63;2.35;;;19.40;99.90;;;;;;1892359;74;21544;-75
2021/07/17 05:47:21;;;;;;;7.58;2.40;;;19.40;99.90;;;;;;1897674;75;21094;-73
2021/07/17 05:49:49;;;;;;;12.10;2.47;;;19.40;99.90;;;;;;1895280;74;21071;-73
2021/07/17 05:52:16;;;;;;;13.90;2.52;;;19.50;99.90;;;;;;1896707;74;21113;-75
2021/07/17 05:54:44;;;;;;;9.38;2.67;;;19.50;99.90;;;;;;1892673;74;21098;-75
2021/07/17 05:57:11;;;;;;;11.73;2.55;;;19.60;99.90;;;;;;1897994;75;21071;-75
2021/07/17 05:59:39;;;;;;;12.28;2.60;;;19.60;99.90;;;;;;1891041;74;21129;-75
2021/07/17 06:02:07;;;;;;;13.62;2.98;;;19.70;99.90;;;;;;1894800;74;21203;-75
2021/07/17 06:04:34;;;;;;;17.23;2.95;;;19.70;99.90;;;;;;1898210;74;21529;-74
2021/07/17 06:07:02;;;;;;;9.60;2.40;;;19.80;99.90;;;;;;1898360;75;21205;-74
2021/07/17 06:09:29;;;;;;;18.37;3.10;;;19.90;99.90;;;;;;1897978;74;21134;-75
2021/07/17 06:11:57;;;;;;;14.13;2.67;;;20.00;99.90;;;;;;1893597;74;21058;-74
2021/07/17 06:14:24;;;;;;;18.00;3.65;;;19.90;99.90;;;;;;1896355;74;21059;-76
2021/07/17 06:16:52;;;;;;;11.60;2.70;;;20.00;99.90;;;;;;1897097;75;21707;-75
2021/07/17 06:19:19;;;;;;;13.35;2.80;;;20.10;99.90;;;;;;1896463;74;21017;-76
2021/07/17 06:21:47;;;;;;;15.72;3.25;;;20.20;99.90;;;;;;1879876;75;21215;-75
2021/07/17 06:24:15;;;;;;;17.32;3.90;;;20.20;99.90;;;;;;1886161;74;21157;-74
2021/07/17 06:26:42;;;;;;;14.28;3.22;;;20.20;99.90;;;;;;1895796;74;21114;-73
2021/07/17 06:29:10;;;;;;;15.18;2.95;;;20.30;99.90;;;;;;1892532;75;21562;-74
2021/07/17 06:31:37;;;;;;;14.28;3.50;;;20.40;99.90;;;;;;1897725;74;21089;-75
2021/07/17 06:34:05;;;;;;;15.43;2.87;;;20.40;99.90;;;;;;1887021;75;21372;-74
2021/07/17 06:36:33;;;;;;;18.95;3.15;;;20.50;99.90;;;;;;1887954;74;21587;-75
2021/07/17 06:39:00;;;;;;;16.07;3.50;;;20.50;99.90;;;;;;1880183;75;21106;-75
2021/07/17 06:41:28;;;;;;;14.60;3.20;;;20.60;99.90;;;;;;1894142;74;21118;-76
2021/07/17 06:43:55;;;;;;;10.80;3.08;;;20.70;99.90;;;;;;1894666;75;21085;-75
2021/07/17 06:46:23;;;;;;;15.93;3.30;;;20.70;99.90;;;;;;1897230;74;21137;-75
2021/07/17 06:48:50;;;;;;;13.95;3.37;;;20.70;99.90;;;;;;1901645;75;21156;-75
2021/07/17 06:51:18;;;;;;;12.85;2.98;;;20.70;99.90;;;;;;1899347;74;21088;-75
2021/07/17 06:53:45;;;;;;;12.63;3.20;;;20.70;99.90;;;;;;1898621;74;21043;-75
2021/07/17 06:56:15;;;;;;;11.95;2.60;;;20.70;99.90;;;;;;1899082;74;21086;-76
2021/07/17 06:58:42;;;;;;;14.55;3.15;;;20.80;99.90;;;;;;1897219;74;21522;-74
2021/07/17 07:01:10;;;;;;;13.30;2.55;;;20.80;99.90;;;;;;1898051;74;21606;-75
2021/07/17 07:03:37;;;;;;;12.70;2.70;;;20.80;99.90;;;;;;1898527;74;21129;-74
2021/07/17 07:06:05;;;;;;;16.80;2.60;;;20.80;99.90;;;;;;1890850;74;21095;-75
2021/07/17 07:08:32;;;;;;;13.03;2.83;;;20.90;99.90;;;;;;1897934;75;21370;-76
2021/07/17 07:11:00;;;;;;;10.30;2.30;;;20.90;99.90;;;;;;1896470;74;21108;-76
2021/07/17 07:13:28;;;;;;;14.80;2.52;;;20.90;99.90;;;;;;1893251;75;21050;-76
2021/07/17 07:15:55;;;;;;;12.78;2.50;;;21.00;99.90;;;;;;1896739;74;21070;-76
2021/07/17 07:18:23;;;;;;;12.20;2.70;;;21.10;99.90;;;;;;1886533;74;21082;-75
2021/07/17 07:20:50;;;;;;;13.88;3.10;;;21.10;99.90;;;;;;1891862;74;21738;-76
2021/07/17 07:23:18;;;;;;;11.63;2.70;;;21.10;99.90;;;;;;1884933;76;21051;-75
2021/07/17 07:25:45;;;;;;;17.62;3.27;;;21.10;99.90;;;;;;1885810;74;21156;-76
2021/07/17 07:28:13;;;;;;;12.95;2.90;;;21.20;99.90;;;;;;1897908;74;21078;-76
2021/07/17 07:30:40;;;;;;;11.05;2.45;;;21.20;99.90;;;;;;1893237;74;21645;-75
2021/07/17 07:33:08;;;;;;;13.08;2.55;;;21.30;99.90;;;;;;1890150;75;21115;-75
2021/07/17 07:35:35;;;;;;;10.38;2.00;;;21.30;99.90;;;;;;1897974;75;21090;-76
2021/07/17 07:38:03;;;;;;;12.10;2.50;;;21.30;99.90;;;;;;1897276;74;21144;-75
2021/07/17 07:40:30;;;;;;;11.20;2.72;;;21.40;99.90;;;;;;1895997;74;21045;-76
2021/07/17 07:42:58;;;;;;;13.60;2.95;;;21.40;99.90;;;;;;1894534;75;21090;-76
2021/07/17 07:45:26;;;;;;;11.57;2.58;;;21.50;99.90;;;;;;1893300;74;21078;-76
2021/07/17 07:47:54;;;;;;;20.37;2.95;;;21.50;99.90;;;;;;1898887;75;21547;-74
2021/07/17 07:50:21;;;;;;;13.58;2.10;;;21.50;99.90;;;;;;1894835;75;21156;-73
2021/07/17 07:52:50;;;;;;;12.07;2.60;;;21.50;99.90;;;;;;1898666;74;21168;-72
2021/07/17 07:55:18;;;;;;;19.75;3.15;;;21.60;99.90;;;;;;1895574;74;21628;-73
2021/07/17 07:57:47;;;;;;;11.30;2.70;;;21.70;99.90;;;;;;1899622;75;21082;-73
2021/07/17 08:00:16;;;;;;;13.00;3.35;;;21.70;99.90;;;;;;1899750;75;21618;-73
2021/07/17 08:02:43;;;;;;;15.20;3.35;;;21.80;99.90;;;;;;1898305;74;21094;-74
2021/07/17 08:05:11;;;;;;;11.90;2.70;;;21.90;99.90;;;;;;1894616;75;21004;-74
2021/07/17 08:07:39;;;;;;;13.98;2.42;;;21.90;99.90;;;;;;1888365;75;21114;-74
2021/07/17 08:10:07;;;;;;;12.78;2.55;;;21.90;99.90;;;;;;1898130;75;21159;-75
2021/07/17 08:12:35;;;;;;;12.28;2.55;;;22.00;99.90;;;;;;1898343;74;21071;-74
2021/07/17 08:15:03;;;;;;;9.85;2.27;;;22.00;99.90;;;;;;1890405;75;21591;-74
2021/07/17 08:17:31;;;;;;;12.35;2.67;;;22.10;99.90;;;;;;1884107;74;21683;-75
2021/07/17 08:19:58;;;;;;;14.68;2.77;;;22.10;99.90;;;;;;1892891;74;21094;-77
2021/07/17 08:22:26;;;;;;;14.95;3.22;;;22.10;99.90;;;;;;1897765;74;21117;-78
2021/07/17 08:24:53;;;;;;;9.20;2.52;;;22.10;99.90;;;;;;1891917;74;21103;-77
2021/07/17 08:27:21;;;;;;;15.32;2.95;;;22.20;99.90;;;;;;1895938;75;21066;-73
2021/07/17 08:29:48;;;;;;;13.93;2.90;;;22.20;99.90;;;;;;1885969;74;21078;-70
2021/07/17 08:32:16;;;;;;;13.30;2.85;;;22.40;99.90;;;;;;1904710;74;21673;-71
2021/07/17 08:34:44;;;;;;;14.05;2.22;;;22.40;99.90;;;;;;1887847;74;21086;-71
2021/07/17 08:37:12;;;;;;;15.45;3.00;;;22.40;99.90;;;;;;1883111;74;21062;-70
2021/07/17 08:39:39;;;;;;;14.20;2.67;;;22.40;99.90;;;;;;1876589;75;21137;-71
2021/07/17 08:42:07;;;;;;;16.23;3.15;;;22.50;99.90;;;;;;1893513;74;21183;-70
2021/07/17 08:44:36;;;;;;;18.17;2.58;;;22.60;99.90;;;;;;1879574;74;21135;-70
2021/07/17 08:47:04;;;;;;;10.50;2.55;;;22.60;99.90;;;;;;1893778;74;21175;-72
2021/07/17 08:49:33;;;;;;;15.03;2.75;;;22.60;99.90;;;;;;1874733;75;21078;-72
2021/07/17 08:52:02;;;;;;;15.70;2.70;;;22.60;99.90;;;;;;1893144;75;21197;-71
2021/07/17 08:54:31;;;;;;;11.78;2.65;;;22.70;99.90;;;;;;1890774;75;21620;-73
2021/07/17 08:56:58;;;;;;;14.55;2.67;;;22.70;99.90;;;;;;1895430;75;21099;-70
2021/07/17 08:59:25;;;;;;;12.30;3.10;;;22.80;99.90;;;;;;1889481;74;21131;-71
2021/07/17 09:01:53;;;;;;;15.50;2.67;;;23.00;99.90;;;;;;1892323;74;21552;-72
2021/07/17 09:04:26;;;;;;;11.10;2.52;;;23.10;99.90;;;;;;1887500;74;21084;-72
2021/07/17 09:06:54;;;;;;;10.35;2.37;;;23.20;99.90;;;;;;1892248;74;21130;-72
2021/07/17 09:09:32;;;;;;;13.32;2.80;;;23.20;99.90;;;;;;1897293;74;21467;-73
2021/07/17 09:12:00;;;;;;;16.32;3.05;;;23.10;99.90;;;;;;1897112;74;21083;-73
2021/07/17 09:14:39;;;;;;;10.82;3.12;;;23.00;99.90;;;;;;1898390;74;21580;-74
2021/07/17 09:17:07;;;;;;;13.68;2.50;;;23.10;99.90;;;;;;1890758;74;21164;-72
2021/07/17 09:19:35;;;;;;;15.08;3.17;;;23.10;99.90;;;;;;1895751;74;21080;-73
2021/07/17 09:22:03;;;;;;;13.50;2.98;;;23.10;99.90;;;;;;1893119;74;21773;-72
2021/07/17 09:24:30;;;;;;;12.23;2.70;;;23.10;99.90;;;;;;1893957;74;21331;-72
2021/07/17 09:27:00;;;;;;;12.18;3.58;;;23.20;99.90;;;;;;1892924;74;21033;-68
2021/07/17 09:29:36;;;;;;;17.50;3.33;;;23.20;99.90;;;;;;1890378;74;21138;-73
2021/07/17 09:32:04;;;;;;;12.78;2.83;;;23.30;99.90;;;;;;1885014;74;21689;-76
2021/07/17 09:34:33;;;;;;;10.03;2.60;;;23.40;99.90;;;;;;1893677;75;21101;-71
2021/07/17 09:37:03;;;;;;;14.70;2.52;;;23.50;99.90;;;;;;1848507;77;21573;-74
2021/07/17 09:39:36;;;;;;;15.32;3.10;;;23.50;99.90;;;;;;1865697;75;21091;-72
2021/07/17 09:42:07;;;;;;;14.53;2.90;;;23.60;99.90;;;;;;1898375;74;21122;-74
2021/07/17 09:44:35;;;;;;;15.43;3.15;;;23.60;99.90;;;;;;1893671;75;21140;-72
2021/07/17 09:47:05;;;;;;;11.55;2.87;;;23.50;99.90;;;;;;1884830;76;21750;-72
2021/07/17 09:49:32;;;;;;;11.93;3.10;;;23.60;99.90;;;;;;1884813;75;21549;-73
2021/07/17 09:52:08;;;;;;;16.27;2.75;;;23.60;99.90;;;;;;1898010;74;21126;-76
2021/07/17 09:54:35;;;;;;;13.25;2.80;;;23.70;99.90;;;;;;1910834;74;21135;-75
2021/07/17 09:57:04;;;;;;;13.50;2.70;;;23.70;99.90;;;;;;1919537;74;21123;-75
2021/07/17 09:59:31;;;;;;;15.40;3.52;;;23.80;99.90;;;;;;1897975;75;21039;-75
2021/07/17 10:01:59;;;;;;;12.25;2.80;;;23.80;99.90;;;;;;1898270;74;21043;-75
2021/07/17 10:04:26;;;;;;;13.32;2.85;;;23.90;99.90;;;;;;1898006;75;21157;-76
2021/07/17 10:06:59;;;;;;;8.78;2.40;;;23.90;99.90;;;;;;1898578;75;21638;-76
2021/07/17 10:09:31;;;;;;;14.10;2.85;;;24.10;99.90;;;;;;1898970;75;21116;-74
2021/07/17 10:12:04;;;;;;;14.58;2.50;;;24.20;99.90;;;;;;1898731;74;21615;-73
2021/07/17 10:14:34;;;;;;;12.25;2.62;;;24.20;99.90;;;;;;1894811;75;20983;-76
2021/07/17 10:17:15;;;;;;;12.25;2.90;;;24.20;99.90;;;;;;1880806;75;21089;-73
2021/07/17 10:19:43;;;;;;;11.15;2.25;;;24.10;99.90;;;;;;1889782;75;21101;-74
2021/07/17 10:22:12;;;;;;;14.63;2.40;;;24.10;99.90;;;;;;1887328;75;21083;-69
2021/07/17 10:24:40;;;;;;;10.82;1.98;;;24.20;99.90;;;;;;1899574;75;21081;-72
2021/07/17 10:27:08;;;;;;;12.50;2.58;;;24.20;99.90;;;;;;1896846;75;21104;-71
2021/07/17 10:29:36;;;;;;;10.65;2.33;;;24.20;99.90;;;;;;1898219;75;21164;-74
2021/07/17 10:32:04;;;;;;;11.80;2.12;;;24.20;99.90;;;;;;1876026;75;21223;-73
2021/07/17 10:34:32;;;;;;;9.68;2.00;;;24.10;99.90;;;;;;1883189;75;22604;-72
2021/07/17 10:37:17;;;;;;;9.58;1.87;;;24.10;99.90;;;;;;1893142;74;21107;-75
2021/07/17 10:39:48;;;;;;;10.40;2.22;;;24.20;99.90;;;;;;1895954;75;21612;-70
2021/07/17 10:42:21;;;;;;;16.02;2.52;;;24.10;99.90;;;;;;1895207;74;21102;-70
2021/07/17 10:44:56;;;;;;;12.80;2.35;;;24.10;99.90;;;;;;1893627;74;21123;-71
2021/07/17 10:47:26;;;;;;;8.73;2.08;;;24.20;99.90;;;;;;1894655;75;21551;-70
2021/07/17 10:49:55;;;;;;;18.25;2.50;;;24.20;99.90;;;;;;1890230;74;21060;-70
2021/07/17 10:52:43;;;;;;;13.53;2.45;;;24.20;99.90;;;;;;1896129;74;21189;-71
2021/07/17 10:55:32;;;;;;;8.95;2.17;;;24.20;99.90;;;;;;1895830;75;21529;-73
2021/07/17 10:58:02;;;;;;;8.73;2.00;;;24.50;99.90;;;;;;1894605;74;21111;-73
2021/07/17 11:00:48;;;;;;;9.78;2.15;;;24.30;99.90;;;;;;1883371;74;21114;-70
2021/07/17 11:03:21;;;;;;;11.28;2.30;;;24.20;99.90;;;;;;1886770;74;21607;-71
2021/07/17 11:05:50;;;;;;;9.50;1.98;;;24.40;99.90;;;;;;1898344;75;21087;-70
2021/07/17 11:08:32;;;;;;;6.33;1.82;;;24.40;99.90;;;;;;1896342;74;21101;-71
2021/07/17 11:11:01;;;;;;;12.43;2.70;;;24.40;99.90;;;;;;1893930;75;22171;-71
2021/07/17 11:13:36;;;;;;;11.18;2.42;;;24.40;99.90;;;;;;1891666;74;21127;-76
2021/07/17 11:16:05;;;;;;;10.72;2.08;;;24.40;99.90;;;;;;1885245;74;21153;-74
2021/07/17 11:18:35;;;;;;;12.60;2.33;;;24.50;99.90;;;;;;1894914;74;21164;-73
2021/07/17 11:21:05;;;;;;;7.30;2.05;;;24.50;99.90;;;;;;1889665;74;21232;-74
2021/07/17 11:23:35;;;;;;;7.92;1.67;;;24.50;99.90;;;;;;1893464;74;21138;-75
2021/07/17 11:26:06;;;;;;;9.15;2.30;;;24.40;99.90;;;;;;1893716;74;21082;-75
2021/07/17 11:28:53;;;;;;;11.20;2.02;;;24.50;99.90;;;;;;1896491;74;21098;-76
2021/07/17 11:31:29;;;;;;;4.35;1.57;;;24.70;99.90;;;;;;1896571;74;21240;-74
2021/07/17 11:34:20;;;;;;;9.18;2.10;;;24.60;99.90;;;;;;1894096;74;21262;-74
2021/07/17 11:36:47;;;;;;;8.93;1.85;;;24.50;99.90;;;;;;1894507;74;21781;-74
2021/07/17 11:39:17;;;;;;;8.10;1.87;;;24.80;99.90;;;;;;1896193;74;21143;-74
2021/07/17 11:41:45;;;;;;;10.10;1.50;;;24.80;99.90;;;;;;1896738;74;21032;-73
2021/07/17 11:44:13;;;;;;;8.20;1.85;;;24.60;99.90;;;;;;1904223;74;21501;-75
2021/07/17 11:46:58;;;;;;;7.30;1.90;;;24.80;99.90;;;;;;1895469;74;21003;-75
2021/07/17 11:49:34;;;;;;;9.73;1.75;;;24.80;99.90;;;;;;1896039;74;21027;-74
2021/07/17 11:52:04;;;;;;;9.73;2.05;;;24.90;99.90;;;;;;1896530;74;21161;-73
2021/07/17 11:54:37;;;;;;;12.68;2.77;;;25.00;99.90;;;;;;1894058;74;21230;-74
2021/07/17 11:57:19;;;;;;;8.93;2.15;;;25.00;99.90;;;;;;1892589;74;21628;-74
2021/07/17 11:59:47;;;;;;;;;;;25.10;99.90;;;;;;1894767;74;21585;-76
2021/07/17 12:02:19;;;;;;;7.78;1.40;;;25.00;99.90;;;;;;1890595;74;20169;-74
2021/07/17 12:04:47;;;;;;;;;;;25.00;99.90;;;;;;1892547;74;21515;-73
2021/07/17 12:07:17;;;;;;;7.65;1.40;;;25.00;99.90;;;;;;1888692;74;20515;-73
2021/07/17 12:09:51;;;;;;;6.83;1.72;;;25.00;99.90;;;;;;1892873;74;21188;-73
2021/07/17 12:12:21;;;;;;;7.50;1.50;;;25.10;99.90;;;;;;1888937;74;21118;-73
2021/07/17 12:14:57;;;;;;;10.82;2.08;;;25.00;99.90;;;;;;1894375;74;21477;-73
2021/07/17 12:17:25;;;;;;;8.90;1.70;;;25.10;99.90;;;;;;1893331;74;21563;-74
2021/07/17 12:20:13;;;;;;;8.43;1.80;;;25.10;99.90;;;;;;1891990;74;22148;-73
2021/07/17 12:22:55;;;;;;;9.65;1.70;;;25.00;99.90;;;;;;1886615;74;21636;-75
2021/07/17 12:25:24;;;;;;;;;;;25.10;99.90;;;;;;1892660;74;21477;-74
2021/07/17 12:27:53;;;;;;;5.80;1.70;;;25.20;99.90;;;;;;1895479;74;20205;-73
2021/07/17 12:30:23;;;;;;;7.65;1.72;;;25.30;99.90;;;;;;1868830;74;21056;-71
2021/07/17 12:32:51;;;;;;;6.95;1.37;;;25.40;99.90;;;;;;1895389;74;21023;-74
2021/07/17 12:35:23;;;;;;;7.58;1.60;;;25.40;99.90;;;;;;1892636;74;21130;-74
2021/07/17 12:37:52;;;;;;;11.20;2.10;;;25.40;99.90;;;;;;1892118;74;21476;-75
2021/07/17 12:40:21;;;;;;;5.97;1.42;;;25.50;99.90;;;;;;1887262;74;21082;-73
2021/07/17 12:42:50;;;;;;;6.72;1.80;;;25.30;99.90;;;;;;1896363;74;21134;-73
2021/07/17 12:45:22;;;;;;;10.80;1.70;;;25.50;99.90;;;;;;1891453;74;21158;-72
2021/07/17 12:47:51;;;;;;;9.35;2.10;;;25.60;99.90;;;;;;1890762;74;21727;-73
2021/07/17 12:50:24;;;;;;;10.35;1.60;;;25.70;99.90;;;;;;1894937;75;21155;-73